createdAt,value
2019-06-20T00:00:58.324Z,17.40
2019-06-20T00:03:30.651Z,17.40
2019-06-20T00:06:02.899Z,17.42
2019-06-20T00:08:35.124Z,17.42
2019-06-20T00:11:07.403Z,17.43
2019-06-20T00:13:39.607Z,17.41
2019-06-20T00:16:11.813Z,17.37
2019-06-20T00:18:44.151Z,17.34
2019-06-20T00:21:16.375Z,17.35
2019-06-20T00:23:48.589Z,17.34
2019-06-20T00:26:20.870Z,17.33
2019-06-20T00:28:54.205Z,17.32
2019-06-20T00:31:26.425Z,17.33
2019-06-20T00:33:58.641Z,17.31
2019-06-20T00:36:30.890Z,17.30
2019-06-20T00:39:03.088Z,17.28
2019-06-20T00:41:36.979Z,17.29
2019-06-20T00:44:09.203Z,17.27
2019-06-20T00:46:41.478Z,17.26
2019-06-20T00:49:14.818Z,17.22
2019-06-20T00:51:47.043Z,17.24
2019-06-20T00:54:19.272Z,17.25
2019-06-20T00:56:51.543Z,17.25
2019-06-20T00:59:23.748Z,17.24
2019-06-20T01:01:57.106Z,17.23
2019-06-20T01:04:29.370Z,17.24
2019-06-20T01:07:01.615Z,17.21
2019-06-20T01:09:33.887Z,17.20
2019-06-20T01:12:06.078Z,17.25
2019-06-20T01:14:38.312Z,17.34
2019-06-20T01:17:11.541Z,17.42
2019-06-20T01:19:43.843Z,17.47
2019-06-20T01:22:16.053Z,17.51
2019-06-20T01:24:48.366Z,17.48
2019-06-20T01:27:20.582Z,17.42
2019-06-20T01:29:52.790Z,17.37
2019-06-20T01:32:25.085Z,17.33
2019-06-20T01:34:57.383Z,17.28
2019-06-20T01:37:29.624Z,17.23
2019-06-20T01:40:01.930Z,17.21
2019-06-20T01:42:34.269Z,17.16
2019-06-20T01:45:06.499Z,17.09
2019-06-20T01:47:38.712Z,16.97
2019-06-20T01:50:10.986Z,16.91
2019-06-20T01:52:43.225Z,16.88
2019-06-20T01:55:15.454Z,16.96
2019-06-20T01:57:47.737Z,16.94
2019-06-20T02:00:19.941Z,16.98
2019-06-20T02:02:52.182Z,17.05
2019-06-20T02:05:24.418Z,17.14
2019-06-20T02:07:56.745Z,17.13
2019-06-20T02:10:29.073Z,17.11
2019-06-20T02:13:01.326Z,17.12
2019-06-20T02:15:33.554Z,17.08
2019-06-20T02:18:05.822Z,17.05
2019-06-20T02:20:38.013Z,17.10
2019-06-20T02:23:10.213Z,17.15
2019-06-20T02:25:42.487Z,17.20
2019-06-20T02:28:14.742Z,17.23
2019-06-20T02:30:46.936Z,17.27
2019-06-20T02:33:19.197Z,17.33
2019-06-20T02:35:51.512Z,17.36
2019-06-20T02:38:23.688Z,17.41
2019-06-20T02:40:55.951Z,17.44
2019-06-20T02:43:28.146Z,17.44
2019-06-20T02:46:00.406Z,17.46
2019-06-20T02:48:32.620Z,17.49
2019-06-20T02:51:04.841Z,17.43
2019-06-20T02:53:37.098Z,17.45
2019-06-20T02:56:09.353Z,17.50
2019-06-20T02:58:41.605Z,17.54
2019-06-20T03:01:13.839Z,17.58
2019-06-20T03:03:46.077Z,17.61
2019-06-20T03:06:19.022Z,17.56
2019-06-20T03:08:51.267Z,17.54
2019-06-20T03:11:23.535Z,17.56
2019-06-20T03:13:55.807Z,17.58
2019-06-20T03:16:28.134Z,17.60
2019-06-20T03:19:00.347Z,17.60
2019-06-20T03:21:32.558Z,17.63
2019-06-20T03:24:04.844Z,17.59
2019-06-20T03:26:37.080Z,17.56
2019-06-20T03:29:09.361Z,17.57
2019-06-20T03:31:41.623Z,17.59
2019-06-20T03:34:13.893Z,17.59
2019-06-20T03:36:46.183Z,17.58
2019-06-20T03:39:18.443Z,17.56
2019-06-20T03:41:50.712Z,17.53
2019-06-20T03:44:23.012Z,17.51
2019-06-20T03:46:55.227Z,17.49
2019-06-20T03:49:27.494Z,17.48
2019-06-20T03:51:59.767Z,17.47
2019-06-20T03:54:33.011Z,17.50
2019-06-20T03:57:05.257Z,17.55
2019-06-20T03:59:38.565Z,17.60
2019-06-20T04:02:10.817Z,17.61
2019-06-20T04:04:43.079Z,17.64
2019-06-20T04:07:15.335Z,17.66
2019-06-20T04:09:47.557Z,17.71
2019-06-20T04:12:19.854Z,17.74
2019-06-20T04:14:52.078Z,17.74
2019-06-20T04:17:24.298Z,17.74
2019-06-20T04:19:56.606Z,17.75
2019-06-20T04:22:28.820Z,17.76
2019-06-20T04:25:01.412Z,17.76
2019-06-20T04:27:33.616Z,17.80
2019-06-20T04:30:05.949Z,17.81
2019-06-20T04:32:38.149Z,17.88
2019-06-20T04:35:10.364Z,17.95
2019-06-20T04:37:43.691Z,18.00
2019-06-20T04:40:15.933Z,18.07
2019-06-20T04:42:48.236Z,18.09
2019-06-20T04:45:34.205Z,18.10
2019-06-20T04:47:54.419Z,18.14
2019-06-20T04:50:26.918Z,18.16
2019-06-20T04:52:59.152Z,18.17
2019-06-20T04:55:31.446Z,18.15
2019-06-20T04:58:03.691Z,18.19
2019-06-20T05:00:35.910Z,18.27
2019-06-20T05:03:08.199Z,18.32
2019-06-20T05:05:40.423Z,18.36
2019-06-20T05:08:12.702Z,18.41
2019-06-20T05:10:44.925Z,18.47
2019-06-20T05:13:17.184Z,18.44
2019-06-20T05:15:52.943Z,18.39
2019-06-20T05:18:24.322Z,18.40
2019-06-20T05:20:57.157Z,18.40
2019-06-20T05:23:30.363Z,18.42
2019-06-20T05:26:02.626Z,18.39
2019-06-20T05:28:34.880Z,18.42
2019-06-20T05:31:07.100Z,18.57
2019-06-20T05:33:39.372Z,18.70
2019-06-20T05:36:11.665Z,18.77
2019-06-20T05:38:43.891Z,18.82
2019-06-20T05:41:16.194Z,18.95
2019-06-20T05:43:48.447Z,19.11
2019-06-20T05:46:20.766Z,19.05
2019-06-20T05:48:53.004Z,19.02
2019-06-20T05:51:25.351Z,19.19
2019-06-20T05:53:57.559Z,19.45
2019-06-20T05:56:29.942Z,19.76
2019-06-20T05:59:02.037Z,19.80
2019-06-20T06:01:34.299Z,19.75
2019-06-20T06:04:06.507Z,19.75
2019-06-20T06:06:38.768Z,19.78
2019-06-20T06:09:10.985Z,19.84
2019-06-20T06:11:43.228Z,19.85
2019-06-20T06:14:15.565Z,19.89
2019-06-20T06:16:47.807Z,20.05
2019-06-20T06:19:20.007Z,20.20
2019-06-20T06:21:52.263Z,20.24
2019-06-20T06:24:24.465Z,20.23
2019-06-20T06:26:59.709Z,20.49
2019-06-20T06:29:30.652Z,20.66
2019-06-20T06:32:02.848Z,20.77
2019-06-20T06:34:35.078Z,20.61
2019-06-20T06:37:07.349Z,20.30
2019-06-20T06:39:43.276Z,20.23
2019-06-20T06:42:15.758Z,20.36
2019-06-20T06:44:47.980Z,20.49
2019-06-20T06:47:20.276Z,20.45
2019-06-20T06:49:52.539Z,20.35
2019-06-20T06:52:24.731Z,20.19
2019-06-20T06:54:56.961Z,20.01
2019-06-20T06:57:29.190Z,19.97
2019-06-20T07:00:01.411Z,19.98
2019-06-20T07:02:34.844Z,20.02
2019-06-20T07:05:07.084Z,20.15
2019-06-20T07:07:39.311Z,20.04
2019-06-20T07:10:11.693Z,19.85
2019-06-20T07:12:46.205Z,19.97
2019-06-20T07:15:18.700Z,19.98
2019-06-20T07:17:50.888Z,19.94
2019-06-20T07:20:23.367Z,19.90
2019-06-20T07:22:55.695Z,19.63
2019-06-20T07:25:27.722Z,19.41
2019-06-20T07:27:59.967Z,19.35
2019-06-20T07:30:32.246Z,19.28
2019-06-20T07:33:04.759Z,19.22
2019-06-20T07:35:37.010Z,19.25
2019-06-20T07:38:09.256Z,19.29
2019-06-20T07:40:41.526Z,19.36
2019-06-20T07:43:13.885Z,19.36
2019-06-20T07:46:01.415Z,19.28
2019-06-20T07:48:20.015Z,19.28
2019-06-20T07:50:52.222Z,19.41
2019-06-20T07:53:24.460Z,19.45
2019-06-20T07:55:56.744Z,19.46
2019-06-20T07:58:28.955Z,19.65
2019-06-20T08:01:01.253Z,19.90
2019-06-20T08:03:33.493Z,20.13
2019-06-20T08:06:05.719Z,20.23
2019-06-20T08:08:38.124Z,20.39
2019-06-20T08:11:10.316Z,20.37
2019-06-20T08:13:42.542Z,20.40
2019-06-20T08:16:14.850Z,20.37
2019-06-20T08:18:47.066Z,20.29
2019-06-20T08:21:19.266Z,20.23
2019-06-20T08:23:51.538Z,20.09
2019-06-20T08:26:24.783Z,19.92
2019-06-20T08:29:10.397Z,19.84
2019-06-20T08:31:31.005Z,19.70
2019-06-20T08:34:04.403Z,19.65
2019-06-20T08:36:36.736Z,19.60
2019-06-20T08:39:09.024Z,19.78
2019-06-20T08:41:41.285Z,20.02
2019-06-20T08:44:13.601Z,20.00
2019-06-20T08:46:45.835Z,19.93
2019-06-20T08:49:18.054Z,19.82
2019-06-20T08:51:50.303Z,19.69
2019-06-20T08:54:22.509Z,19.72
2019-06-20T08:56:56.109Z,19.68
2019-06-20T08:59:28.718Z,19.74
2019-06-20T09:04:34.871Z,19.91
2019-06-20T09:07:07.152Z,19.91
2019-06-20T09:09:39.324Z,19.85
2019-06-20T09:12:11.525Z,19.86
2019-06-20T09:14:43.787Z,19.97
2019-06-20T09:17:16.008Z,20.02
2019-06-20T09:19:48.250Z,20.00
2019-06-20T09:22:20.519Z,19.88
2019-06-20T09:24:53.663Z,19.90
2019-06-20T09:27:27.097Z,19.91
2019-06-20T09:30:00.407Z,19.93
2019-06-20T09:32:32.729Z,20.04
2019-06-20T09:35:04.924Z,20.11
2019-06-20T09:37:37.124Z,20.37
2019-06-20T09:40:09.375Z,20.73
2019-06-20T09:42:41.638Z,20.79
2019-06-20T09:45:13.854Z,20.95
2019-06-20T09:47:46.136Z,21.27
2019-06-20T09:50:18.387Z,21.56
2019-06-20T09:52:51.648Z,21.81
2019-06-20T09:55:24.728Z,21.72
2019-06-20T09:57:58.181Z,22.07
2019-06-20T10:00:30.583Z,22.21
2019-06-20T10:03:02.836Z,22.21
2019-06-20T10:05:35.081Z,22.10
2019-06-20T10:08:07.315Z,22.11
2019-06-20T10:10:39.578Z,22.23
2019-06-20T10:13:11.818Z,22.34
2019-06-20T10:15:44.938Z,22.56
2019-06-20T10:18:18.037Z,22.63
2019-06-20T10:20:51.124Z,22.53
2019-06-20T10:23:23.463Z,22.31
2019-06-20T10:25:55.658Z,22.07
2019-06-20T10:28:27.954Z,21.82
2019-06-20T10:31:00.248Z,21.47
2019-06-20T10:33:32.554Z,21.35
2019-06-20T10:36:04.810Z,21.30
2019-06-20T10:38:37.093Z,21.38
2019-06-20T10:41:09.335Z,21.80
2019-06-20T10:43:41.590Z,22.13
2019-06-20T10:46:13.809Z,22.30
2019-06-20T10:48:46.072Z,22.72
2019-06-20T10:51:18.344Z,22.69
2019-06-20T10:53:51.404Z,22.38
2019-06-20T10:56:24.761Z,21.93
2019-06-20T10:58:56.996Z,21.69
2019-06-20T11:01:29.215Z,21.98
2019-06-20T11:04:01.480Z,22.13
2019-06-20T11:06:34.768Z,22.61
2019-06-20T11:09:06.860Z,22.47
2019-06-20T11:11:40.142Z,22.35
2019-06-20T11:14:13.075Z,22.56
2019-06-20T11:16:45.297Z,22.54
2019-06-20T11:19:18.689Z,22.77
2019-06-20T11:21:50.918Z,22.82
2019-06-20T11:24:23.393Z,22.45
2019-06-20T11:26:55.667Z,22.34
2019-06-20T11:29:28.421Z,22.36
2019-06-20T11:32:00.709Z,23.00
2019-06-20T11:34:33.019Z,23.00
2019-06-20T11:37:05.332Z,23.02
2019-06-20T11:39:38.919Z,23.44
2019-06-20T11:42:11.400Z,23.23
2019-06-20T11:44:43.673Z,23.12
2019-06-20T11:47:15.916Z,22.68
2019-06-20T11:49:48.179Z,22.59
2019-06-20T11:52:20.368Z,22.56
2019-06-20T11:54:52.682Z,22.56
2019-06-20T11:57:24.827Z,23.35
2019-06-20T11:59:57.087Z,24.75
2019-06-20T12:02:29.523Z,25.07
2019-06-20T12:05:01.746Z,26.01
2019-06-20T12:07:33.968Z,25.33
2019-06-20T12:10:06.184Z,25.19
2019-06-20T12:12:39.595Z,25.25
2019-06-20T12:15:12.358Z,26.64
2019-06-20T12:17:45.328Z,29.57
2019-06-20T12:20:19.302Z,31.55
2019-06-20T12:22:51.971Z,29.78
2019-06-20T12:25:24.206Z,28.00
2019-06-20T12:27:57.032Z,27.18
2019-06-20T12:30:29.827Z,30.10
2019-06-20T12:33:02.604Z,32.48
2019-06-20T12:35:35.440Z,34.27
2019-06-20T12:38:08.216Z,31.79
2019-06-20T12:40:42.426Z,32.81
2019-06-20T12:43:15.773Z,32.11
2019-06-20T12:45:49.532Z,31.14
2019-06-20T12:48:22.442Z,31.74
2019-06-20T12:50:55.471Z,29.40
2019-06-20T12:53:27.734Z,26.90
2019-06-20T12:55:59.910Z,25.52
2019-06-20T12:58:32.204Z,24.45
2019-06-20T13:01:04.463Z,25.28
2019-06-20T13:03:38.591Z,25.51
2019-06-20T13:06:10.852Z,25.01
2019-06-20T13:08:43.650Z,26.26
2019-06-20T13:11:16.478Z,25.72
2019-06-20T13:13:49.213Z,28.55
2019-06-20T13:16:21.593Z,27.92
2019-06-20T13:18:54.799Z,26.98
2019-06-20T13:21:27.257Z,27.74
2019-06-20T13:23:59.905Z,29.00
2019-06-20T13:26:32.744Z,30.69
2019-06-20T13:29:05.552Z,32.70
2019-06-20T13:31:56.237Z,32.03
2019-06-20T13:34:12.965Z,32.27
2019-06-20T13:36:47.011Z,33.11
2019-06-20T13:39:20.085Z,30.68
2019-06-20T13:41:53.222Z,29.78
2019-06-20T13:44:26.038Z,31.02
2019-06-20T13:46:58.876Z,32.81
2019-06-20T13:49:31.977Z,31.83
2019-06-20T13:52:04.822Z,32.91
2019-06-20T13:54:39.665Z,34.38
2019-06-20T13:57:12.156Z,34.26
2019-06-20T13:59:45.702Z,34.62
2019-06-20T14:02:18.803Z,35.69
2019-06-20T14:04:51.560Z,37.53
2019-06-20T14:07:24.406Z,37.53
2019-06-20T14:09:57.201Z,38.18
2019-06-20T14:12:30.099Z,35.83
2019-06-20T14:15:02.902Z,33.23
2019-06-20T14:17:35.719Z,30.83
2019-06-20T14:20:08.527Z,28.93
2019-06-20T14:22:41.433Z,27.27
2019-06-20T14:25:14.711Z,26.33
2019-06-20T14:27:48.734Z,25.35
2019-06-20T14:30:20.889Z,25.18
2019-06-20T14:32:54.554Z,24.85
2019-06-20T14:35:28.165Z,24.49
2019-06-20T14:38:00.388Z,24.12
2019-06-20T14:40:32.631Z,23.77
2019-06-20T14:43:04.867Z,23.38
2019-06-20T14:45:38.100Z,23.29
2019-06-20T14:48:10.475Z,23.22
2019-06-20T14:50:46.443Z,23.06
2019-06-20T14:53:18.959Z,23.09
2019-06-20T14:55:51.712Z,22.98
2019-06-20T14:58:24.238Z,22.98
2019-06-20T15:00:56.487Z,23.12
2019-06-20T15:03:28.727Z,23.06
2019-06-20T15:06:02.060Z,23.13
2019-06-20T15:08:34.377Z,23.11
2019-06-20T15:11:06.643Z,23.17
2019-06-20T15:13:38.847Z,22.97
2019-06-20T15:16:11.102Z,22.89
2019-06-20T15:18:46.391Z,22.94
2019-06-20T15:21:17.277Z,23.04
2019-06-20T15:23:50.862Z,23.06
2019-06-20T15:26:23.599Z,23.31
2019-06-20T15:28:57.054Z,23.67
2019-06-20T15:31:29.490Z,23.83
2019-06-20T15:34:01.757Z,23.67
2019-06-20T15:36:34.093Z,23.61
2019-06-20T15:39:06.386Z,23.47
2019-06-20T15:41:39.179Z,23.20
2019-06-20T15:44:11.529Z,22.94
2019-06-20T15:46:43.787Z,22.98
2019-06-20T15:49:16.630Z,23.13
2019-06-20T15:51:49.256Z,23.27
2019-06-20T15:54:24.441Z,23.00
2019-06-20T15:56:55.422Z,23.00
2019-06-20T15:59:27.706Z,22.83
2019-06-20T16:01:59.904Z,22.76
2019-06-20T16:04:32.236Z,22.58
2019-06-20T16:07:04.447Z,22.49
2019-06-20T16:09:36.728Z,22.64
2019-06-20T16:12:09.174Z,23.29
2019-06-20T16:14:41.361Z,23.32
2019-06-20T16:17:13.885Z,23.08
2019-06-20T16:19:46.227Z,22.69
2019-06-20T16:22:18.575Z,22.33
2019-06-20T16:24:50.871Z,22.11
2019-06-20T16:27:23.123Z,21.86
2019-06-20T16:29:55.886Z,21.67
2019-06-20T16:32:28.096Z,21.42
2019-06-20T16:35:00.314Z,21.20
2019-06-20T16:37:32.545Z,21.14
2019-06-20T16:40:04.832Z,21.21
2019-06-20T16:42:37.052Z,21.18
2019-06-20T16:45:09.287Z,21.19
2019-06-20T16:47:42.618Z,21.35
2019-06-20T16:50:15.299Z,21.39
2019-06-20T16:52:47.432Z,21.79
2019-06-20T16:55:19.824Z,22.24
2019-06-20T16:57:52.073Z,22.64
2019-06-20T17:00:24.352Z,22.28
2019-06-20T17:02:56.784Z,22.28
2019-06-20T17:05:29.110Z,22.19
2019-06-20T17:08:01.461Z,21.88
2019-06-20T17:10:33.708Z,21.40
2019-06-20T17:13:06.074Z,21.34
2019-06-20T17:15:38.687Z,21.23
2019-06-20T17:18:11.137Z,21.00
2019-06-20T17:20:43.450Z,20.84
2019-06-20T17:23:15.706Z,20.79
2019-06-20T17:25:47.904Z,20.59
2019-06-20T17:28:20.158Z,20.60
2019-06-20T17:30:52.405Z,20.73
2019-06-20T17:33:24.613Z,20.71
2019-06-20T17:35:56.924Z,20.76
2019-06-20T17:38:29.114Z,20.67
2019-06-20T17:41:01.394Z,20.64
2019-06-20T17:43:33.670Z,20.56
2019-06-20T17:46:06.067Z,20.39
2019-06-20T17:48:38.379Z,20.35
2019-06-20T17:51:10.585Z,20.25
2019-06-20T17:53:42.872Z,20.27
2019-06-20T17:56:17.946Z,20.24
2019-06-20T17:58:50.234Z,20.22
2019-06-20T18:01:22.507Z,20.20
2019-06-20T18:03:54.783Z,20.16
2019-06-20T18:06:27.179Z,20.17
2019-06-20T18:09:01.537Z,20.16
2019-06-20T18:11:35.416Z,20.34
2019-06-20T18:14:07.448Z,20.60
2019-06-20T18:16:39.852Z,20.53
2019-06-20T18:19:12.119Z,21.59
2019-06-20T18:21:44.384Z,21.59
2019-06-20T18:24:16.602Z,21.22
2019-06-20T18:26:49.075Z,21.22
2019-06-20T18:29:21.444Z,20.69
2019-06-20T18:31:53.859Z,20.41
2019-06-20T18:34:30.249Z,20.23
2019-06-20T18:37:01.285Z,20.12
2019-06-20T18:39:33.528Z,20.00
2019-06-20T18:42:06.023Z,19.85
2019-06-20T18:44:38.579Z,19.71
2019-06-20T18:47:10.695Z,19.60
2019-06-20T18:49:42.897Z,19.51
2019-06-20T18:52:15.186Z,19.47
2019-06-20T18:54:47.400Z,19.48
2019-06-20T18:57:19.738Z,19.55
2019-06-20T18:59:52.013Z,19.59
2019-06-20T19:02:24.226Z,19.61
2019-06-20T19:04:56.494Z,19.60
2019-06-20T19:07:28.762Z,19.46
2019-06-20T19:10:01.222Z,19.33
2019-06-20T19:12:33.535Z,19.14
2019-06-20T19:15:05.732Z,18.94
2019-06-20T19:17:38.068Z,18.79
2019-06-20T19:20:10.158Z,18.69
2019-06-20T19:22:42.376Z,18.60
2019-06-20T19:25:14.609Z,18.54
2019-06-20T19:27:47.143Z,18.43
2019-06-20T19:30:19.424Z,18.35
2019-06-20T19:32:51.685Z,18.26
2019-06-20T19:35:23.916Z,18.17
2019-06-20T19:37:56.193Z,18.10
2019-06-20T19:40:28.436Z,18.02
2019-06-20T19:43:00.670Z,17.95
2019-06-20T19:45:32.867Z,17.86
2019-06-20T19:48:06.205Z,17.77
2019-06-20T19:50:38.404Z,17.70
2019-06-20T19:53:10.714Z,17.63
2019-06-20T19:55:42.965Z,17.58
2019-06-20T19:58:15.182Z,17.53
2019-06-20T20:00:47.515Z,17.46
2019-06-20T20:03:19.718Z,17.44
2019-06-20T20:05:51.994Z,17.36
2019-06-20T20:08:24.301Z,17.29
2019-06-20T20:10:56.448Z,17.21
2019-06-20T20:13:28.643Z,17.11
2019-06-20T20:16:00.877Z,17.05
2019-06-20T20:18:33.153Z,16.97
2019-06-20T20:21:05.399Z,16.91
2019-06-20T20:23:37.658Z,16.86
2019-06-20T20:26:09.882Z,16.80
2019-06-20T20:28:42.139Z,16.74
2019-06-20T20:31:14.223Z,16.67
2019-06-20T20:33:46.442Z,16.61
2019-06-20T20:36:24.838Z,16.55
2019-06-20T20:38:52.726Z,16.51
2019-06-20T20:41:24.954Z,16.47
2019-06-20T20:43:58.222Z,16.43
2019-06-20T20:46:30.648Z,16.38
2019-06-20T20:49:03.989Z,16.37
2019-06-20T20:51:36.311Z,16.35
2019-06-20T20:54:08.571Z,16.30
2019-06-20T20:56:40.812Z,16.25
2019-06-20T20:59:13.106Z,16.21
2019-06-20T21:01:45.457Z,16.17
2019-06-20T21:04:17.751Z,16.13
2019-06-20T21:06:51.091Z,16.11
2019-06-20T21:09:23.254Z,16.07
2019-06-20T21:11:55.499Z,16.04
2019-06-20T21:14:27.712Z,16.02
2019-06-20T21:16:59.983Z,16.01
2019-06-20T21:19:32.244Z,16.02
2019-06-20T21:22:04.480Z,15.99
2019-06-20T21:24:36.742Z,15.93
2019-06-20T21:27:08.994Z,15.87
2019-06-20T21:29:41.318Z,15.80
2019-06-20T21:32:13.550Z,15.74
2019-06-20T21:34:45.802Z,15.69
2019-06-20T21:37:17.949Z,15.65
2019-06-20T21:39:50.262Z,15.62
2019-06-20T21:42:22.483Z,15.60
2019-06-20T21:44:54.689Z,15.56
2019-06-20T21:47:28.312Z,15.51
2019-06-20T21:50:00.574Z,15.47
2019-06-20T21:52:33.353Z,15.47
2019-06-20T21:55:06.657Z,15.44
2019-06-20T21:57:38.853Z,15.41
2019-06-20T22:00:11.173Z,15.43
2019-06-20T22:02:45.049Z,15.42
2019-06-20T22:05:17.264Z,15.40
2019-06-20T22:07:49.495Z,15.43
2019-06-20T22:10:21.725Z,15.42
2019-06-20T22:12:53.948Z,15.37
2019-06-20T22:15:26.158Z,15.34
2019-06-20T22:17:58.441Z,15.33
2019-06-20T22:20:31.644Z,15.30
2019-06-20T22:23:03.899Z,15.27
2019-06-20T22:25:36.115Z,15.24
2019-06-20T22:28:08.299Z,15.21
2019-06-20T22:30:40.588Z,15.16
2019-06-20T22:33:12.820Z,15.14
2019-06-20T22:35:46.098Z,15.10
2019-06-20T22:38:18.471Z,15.08
2019-06-20T22:40:50.701Z,15.05
2019-06-20T22:43:22.970Z,15.03
2019-06-20T22:45:55.201Z,15.00
2019-06-20T22:48:27.483Z,14.99
2019-06-20T22:50:59.756Z,14.98
2019-06-20T22:53:31.954Z,14.94
2019-06-20T22:56:04.231Z,14.94
2019-06-20T22:58:36.468Z,14.88
2019-06-20T23:01:08.659Z,14.85
2019-06-20T23:03:40.964Z,14.85
2019-06-20T23:06:13.229Z,14.83
2019-06-20T23:08:45.463Z,14.81
2019-06-20T23:11:18.812Z,14.80
2019-06-20T23:13:51.031Z,14.82
2019-06-20T23:16:23.254Z,14.78
2019-06-20T23:18:55.553Z,14.75
2019-06-20T23:21:27.778Z,14.77
2019-06-20T23:24:00.048Z,14.75
2019-06-20T23:26:32.222Z,14.72
2019-06-20T23:29:04.430Z,14.68
2019-06-20T23:31:36.698Z,14.66
2019-06-20T23:34:08.919Z,14.65
2019-06-20T23:36:41.193Z,14.64
2019-06-20T23:39:13.512Z,14.67
2019-06-20T23:41:45.735Z,14.66
2019-06-20T23:44:17.945Z,14.67
2019-06-20T23:46:50.211Z,14.67
2019-06-20T23:49:22.441Z,14.66
2019-06-20T23:51:54.657Z,14.64
2019-06-20T23:54:26.892Z,14.63
2019-06-20T23:56:59.138Z,14.64
2019-06-20T23:59:31.351Z,14.64
